createdAt,value
2022-07-31T00:00:42.924Z,100139.84
2022-07-31T00:01:46.249Z,100134.42
2022-07-31T00:02:50.033Z,100127.33
2022-07-31T00:03:54.124Z,100127.51
2022-07-31T00:04:57.622Z,100130.79
2022-07-31T00:06:01.171Z,100130.31
2022-07-31T00:07:05.815Z,100127.33
2022-07-31T00:08:11.365Z,100124.77
2022-07-31T00:09:51.633Z,100125.25
2022-07-31T00:10:20.569Z,100120.86
2022-07-31T00:11:24.441Z,100119.78
2022-07-31T00:12:29.303Z,100121.83
2022-07-31T00:13:57.767Z,100124.63
2022-07-31T00:14:38.339Z,100125.10
2022-07-31T00:15:40.777Z,100117.83
2022-07-31T00:16:44.485Z,100120.53
2022-07-31T00:17:48.568Z,100116.69
2022-07-31T00:18:51.876Z,100107.18
2022-07-31T00:19:55.618Z,100111.75
2022-07-31T00:21:06.051Z,100110.16
2022-07-31T00:22:10.857Z,100110.88
2022-07-31T00:23:13.710Z,100111.09
2022-07-31T00:24:20.701Z,100106.52
2022-07-31T00:25:24.632Z,100110.06
2022-07-31T00:26:31.198Z,100113.31
2022-07-31T00:27:35.047Z,100115.21
2022-07-31T00:28:38.429Z,100111.45
2022-07-31T00:29:43.198Z,100115.09
2022-07-31T00:30:48.056Z,100116.41
2022-07-31T00:31:51.820Z,100112.11
2022-07-31T00:33:00.151Z,100112.77
2022-07-31T00:34:09.702Z,100113.80
2022-07-31T00:35:17.750Z,100115.00
2022-07-31T00:36:21.529Z,100110.83
2022-07-31T00:37:27.893Z,100110.52
2022-07-31T00:38:34.684Z,100100.72
2022-07-31T00:39:39.126Z,100104.45
2022-07-31T00:40:54.074Z,100099.58
2022-07-31T00:42:00.073Z,100095.94
2022-07-31T00:43:05.458Z,100099.75
2022-07-31T00:44:12.509Z,100102.91
2022-07-31T00:45:15.678Z,100101.53
2022-07-31T00:46:23.192Z,100093.11
2022-07-31T00:48:43.371Z,100086.31
2022-07-31T00:49:47.543Z,100088.05
2022-07-31T00:50:51.880Z,100090.30
2022-07-31T00:51:56.049Z,100091.20
2022-07-31T00:52:59.830Z,100092.34
2022-07-31T00:54:04.380Z,100092.58
2022-07-31T00:55:12.118Z,100095.72
2022-07-31T00:56:16.331Z,100095.95
2022-07-31T00:57:19.904Z,100095.23
2022-07-31T00:58:23.235Z,100095.23
2022-07-31T00:59:29.503Z,100097.76
2022-07-31T01:00:36.226Z,100091.69
2022-07-31T01:01:39.917Z,100094.03
2022-07-31T01:02:46.670Z,100095.59
2022-07-31T01:03:49.821Z,100093.38
2022-07-31T01:04:53.565Z,100091.15
2022-07-31T01:05:56.932Z,100089.64
2022-07-31T01:07:03.740Z,100090.17
2022-07-31T01:08:07.905Z,100092.34
2022-07-31T01:09:15.517Z,100091.55
2022-07-31T01:10:38.879Z,100089.82
2022-07-31T01:11:52.173Z,100088.58
2022-07-31T01:13:02.976Z,100087.07
2022-07-31T01:14:07.905Z,100093.50
2022-07-31T01:15:14.497Z,100101.25
2022-07-31T01:16:19.653Z,100091.73
2022-07-31T01:17:25.684Z,100091.55
2022-07-31T01:18:34.454Z,100082.50
2022-07-31T01:19:43.691Z,100082.38
2022-07-31T01:20:58.902Z,100084.77
2022-07-31T01:22:33.321Z,100076.12
2022-07-31T01:24:08.259Z,100079.48
2022-07-31T01:26:06.293Z,100076.12
2022-07-31T01:27:19.602Z,100075.50
2022-07-31T01:28:45.212Z,100077.89
2022-07-31T01:29:56.202Z,100077.89
2022-07-31T01:31:25.993Z,100078.63
2022-07-31T01:32:20.953Z,100069.86
2022-07-31T01:33:33.104Z,100076.10
2022-07-31T01:34:57.359Z,100074.42
2022-07-31T01:36:06.977Z,100073.05
2022-07-31T01:37:20.347Z,100074.23
2022-07-31T01:38:34.735Z,100077.05
2022-07-31T01:39:42.081Z,100076.20
2022-07-31T01:40:48.830Z,100077.61
2022-07-31T01:41:58.326Z,100072.24
2022-07-31T01:43:05.384Z,100068.70
2022-07-31T01:44:14.088Z,100071.71
2022-07-31T01:45:22.113Z,100070.87
2022-07-31T01:46:29.955Z,100062.41
2022-07-31T01:47:35.298Z,100066.41
2022-07-31T01:48:41.100Z,100082.00
2022-07-31T01:49:47.582Z,100073.67
2022-07-31T01:50:53.528Z,100070.30
2022-07-31T01:52:08.054Z,100073.67
2022-07-31T01:53:16.975Z,100068.41
2022-07-31T01:54:23.350Z,100078.59
2022-07-31T01:55:31.207Z,100073.81
2022-07-31T01:56:38.858Z,100064.80
2022-07-31T01:57:45.661Z,100075.68
2022-07-31T01:58:50.923Z,100068.03
2022-07-31T02:00:00.705Z,100067.15
2022-07-31T02:01:12.108Z,100063.47
2022-07-31T02:02:17.686Z,100069.54
2022-07-31T02:03:43.750Z,100071.22
2022-07-31T02:04:33.096Z,100067.08
2022-07-31T02:05:42.220Z,100061.33
2022-07-31T02:06:49.667Z,100061.25
2022-07-31T02:07:54.542Z,100056.38
2022-07-31T02:09:00.501Z,100062.62
2022-07-31T02:10:14.053Z,100061.92
2022-07-31T02:11:21.235Z,100069.86
2022-07-31T02:12:32.250Z,100071.92
2022-07-31T02:13:35.765Z,100065.81
2022-07-31T02:14:43.118Z,100063.01
2022-07-31T02:15:49.297Z,100057.78
2022-07-31T02:16:54.672Z,100068.41
2022-07-31T02:18:01.725Z,100063.47
2022-07-31T02:19:14.532Z,100067.67
2022-07-31T02:20:19.784Z,100065.89
2022-07-31T02:21:27.118Z,100060.09
2022-07-31T02:22:31.040Z,100069.43
2022-07-31T02:23:36.184Z,100070.45
2022-07-31T02:24:45.385Z,100065.39
2022-07-31T02:25:49.377Z,100076.38
2022-07-31T02:26:53.328Z,100065.50
2022-07-31T02:28:02.113Z,100074.17
2022-07-31T02:29:19.548Z,100074.84
2022-07-31T02:30:17.934Z,100074.70
2022-07-31T02:31:23.995Z,100069.95
2022-07-31T02:32:29.349Z,100073.36
2022-07-31T02:33:33.185Z,100075.28
2022-07-31T02:34:37.942Z,100070.83
2022-07-31T02:35:46.143Z,100076.41
2022-07-31T02:36:54.835Z,100080.45
2022-07-31T02:38:03.166Z,100076.30
2022-07-31T02:39:09.459Z,100084.16
2022-07-31T02:40:15.552Z,100086.61
2022-07-31T02:41:21.950Z,100081.81
2022-07-31T02:42:25.840Z,100085.36
2022-07-31T02:43:32.815Z,100091.08
2022-07-31T02:44:38.827Z,100086.44
2022-07-31T02:45:44.422Z,100084.92
2022-07-31T02:46:49.530Z,100085.27
2022-07-31T02:47:53.871Z,100089.98
2022-07-31T02:48:59.655Z,100089.83
2022-07-31T02:50:05.970Z,100091.84
2022-07-31T02:51:10.376Z,100093.52
2022-07-31T02:52:17.559Z,100093.03
2022-07-31T02:53:22.211Z,100089.80
2022-07-31T02:54:31.103Z,100084.89
2022-07-31T02:55:36.637Z,100080.36
2022-07-31T02:56:42.006Z,100084.58
2022-07-31T02:57:52.318Z,100087.95
2022-07-31T02:58:56.628Z,100086.27
2022-07-31T03:00:18.487Z,100085.91
2022-07-31T03:01:22.469Z,100082.86
2022-07-31T03:02:34.484Z,100085.83
2022-07-31T03:03:36.418Z,100085.16
2022-07-31T03:04:40.341Z,100082.48
2022-07-31T03:05:45.713Z,100093.95
2022-07-31T03:06:53.341Z,100089.63
2022-07-31T03:08:02.276Z,100083.73
2022-07-31T03:09:10.899Z,100086.27
2022-07-31T03:10:15.732Z,100089.31
2022-07-31T03:11:21.948Z,100084.72
2022-07-31T03:12:26.350Z,100088.64
2022-07-31T03:13:34.024Z,100085.91
2022-07-31T03:14:40.541Z,100089.11
2022-07-31T03:15:51.003Z,100092.63
2022-07-31T03:16:54.689Z,100089.57
2022-07-31T03:17:59.589Z,100090.48
2022-07-31T03:19:13.146Z,100094.31
2022-07-31T03:20:18.974Z,100089.57
2022-07-31T03:21:24.965Z,100092.10
2022-07-31T03:22:32.334Z,100089.22
2022-07-31T03:23:40.667Z,100087.36
2022-07-31T03:24:46.307Z,100086.84
2022-07-31T03:25:54.569Z,100085.64
2022-07-31T03:26:59.963Z,100088.98
2022-07-31T03:28:03.610Z,100087.51
2022-07-31T03:29:39.099Z,100082.39
2022-07-31T03:31:32.711Z,100095.55
2022-07-31T03:32:36.988Z,100089.13
2022-07-31T03:33:41.733Z,100088.28
2022-07-31T03:34:45.424Z,100086.91
2022-07-31T03:35:51.389Z,100087.93
2022-07-31T03:36:56.091Z,100088.53
2022-07-31T03:38:00.672Z,100087.33
2022-07-31T03:39:05.859Z,100085.16
2022-07-31T03:40:12.384Z,100082.23
2022-07-31T03:41:16.581Z,100087.29
2022-07-31T03:42:20.823Z,100082.20
2022-07-31T03:43:26.634Z,100086.48
2022-07-31T03:44:41.150Z,100091.30
2022-07-31T03:45:46.302Z,100086.84
2022-07-31T03:46:51.120Z,100089.19
2022-07-31T03:47:56.814Z,100089.69
2022-07-31T03:49:01.257Z,100085.78
2022-07-31T03:50:09.117Z,100086.09
2022-07-31T03:51:13.158Z,100080.46
2022-07-31T03:52:16.386Z,100072.75
2022-07-31T03:53:23.376Z,100076.60
2022-07-31T03:54:28.344Z,100080.33
2022-07-31T03:55:52.280Z,100078.28
2022-07-31T03:57:01.363Z,100085.03
2022-07-31T03:58:07.194Z,100076.17
2022-07-31T03:59:10.821Z,100082.85
2022-07-31T04:00:17.937Z,100079.22
2022-07-31T04:01:22.491Z,100083.25
2022-07-31T04:02:28.075Z,100077.86
2022-07-31T04:03:40.432Z,100083.52
2022-07-31T04:04:56.501Z,100084.30
2022-07-31T04:05:59.229Z,100077.50
2022-07-31T04:07:07.500Z,100079.79
2022-07-31T04:08:09.942Z,100080.81
2022-07-31T04:09:18.616Z,100073.17
2022-07-31T04:10:25.133Z,100072.45
2022-07-31T04:11:30.269Z,100072.27
2022-07-31T04:12:39.022Z,100078.06
2022-07-31T04:13:43.340Z,100082.75
2022-07-31T04:14:48.395Z,100075.95
2022-07-31T04:15:52.456Z,100078.42
2022-07-31T04:16:57.995Z,100072.10
2022-07-31T04:18:08.924Z,100078.17
2022-07-31T04:19:14.555Z,100074.98
2022-07-31T04:20:28.915Z,100081.06
2022-07-31T04:21:34.305Z,100080.63
2022-07-31T04:22:38.502Z,100083.52
2022-07-31T04:23:49.479Z,100079.42
2022-07-31T04:24:56.336Z,100078.66
2022-07-31T04:26:05.156Z,100082.84
2022-07-31T04:27:22.211Z,100081.73
2022-07-31T04:28:27.105Z,100083.78
2022-07-31T04:29:32.048Z,100083.65
2022-07-31T04:30:36.390Z,100084.23
2022-07-31T04:31:39.012Z,100086.72
2022-07-31T04:32:46.665Z,100097.98
2022-07-31T04:33:56.580Z,100094.46
2022-07-31T04:34:59.458Z,100107.93
2022-07-31T04:36:03.377Z,100113.64
2022-07-31T04:37:06.067Z,100111.95
2022-07-31T04:38:12.540Z,100121.04
2022-07-31T04:39:16.504Z,100129.34
2022-07-31T04:40:22.838Z,100140.98
2022-07-31T04:41:29.797Z,100143.02
2022-07-31T04:42:33.974Z,100140.78
2022-07-31T04:43:38.993Z,100148.02
2022-07-31T04:44:43.055Z,100150.55
2022-07-31T04:45:46.731Z,100159.58
2022-07-31T04:46:52.424Z,100168.50
2022-07-31T04:47:56.140Z,100160.07
2022-07-31T04:49:02.720Z,100164.35
2022-07-31T04:50:13.073Z,100159.89
2022-07-31T04:51:24.276Z,100167.41
2022-07-31T04:52:29.334Z,100168.77
2022-07-31T04:53:38.882Z,100173.88
2022-07-31T04:54:46.489Z,100178.59
2022-07-31T04:56:09.802Z,100180.27
2022-07-31T04:57:18.469Z,100174.33
2022-07-31T04:58:19.839Z,100179.36
2022-07-31T04:59:24.423Z,100181.25
2022-07-31T05:00:33.814Z,100167.19
2022-07-31T05:01:37.564Z,100174.39
2022-07-31T05:02:41.795Z,100183.56
2022-07-31T05:03:50.664Z,100188.56
2022-07-31T05:04:57.175Z,100182.73
2022-07-31T05:06:12.866Z,100173.73
2022-07-31T05:07:17.823Z,100188.72
2022-07-31T05:08:21.696Z,100170.70
2022-07-31T05:09:25.706Z,100187.13
2022-07-31T05:10:53.360Z,100176.84
2022-07-31T05:12:06.896Z,100184.23
2022-07-31T05:13:12.041Z,100170.23
2022-07-31T05:14:17.628Z,100178.45
2022-07-31T05:15:20.165Z,100183.01
2022-07-31T05:16:28.303Z,100187.75
2022-07-31T05:17:34.901Z,100185.68
2022-07-31T05:18:59.821Z,100180.47
2022-07-31T05:20:24.878Z,100178.09
2022-07-31T05:21:53.314Z,100180.66
2022-07-31T05:23:01.617Z,100186.50
2022-07-31T05:24:12.225Z,100181.17
2022-07-31T05:25:30.595Z,100192.63
2022-07-31T05:26:35.321Z,100188.50
2022-07-31T05:27:39.256Z,100187.97
2022-07-31T05:28:46.666Z,100182.36
2022-07-31T05:29:51.575Z,100182.70
2022-07-31T05:30:55.664Z,100184.05
2022-07-31T05:32:01.249Z,100180.89
2022-07-31T05:33:06.748Z,100182.55
2022-07-31T05:34:09.985Z,100185.20
2022-07-31T05:35:14.741Z,100191.86
2022-07-31T06:02:24.306Z,100199.18
2022-07-31T06:03:34.703Z,100189.75
2022-07-31T06:04:39.094Z,100184.47
2022-07-31T06:05:44.073Z,100186.30
2022-07-31T06:06:49.088Z,100174.69
2022-07-31T06:07:52.952Z,100165.17
2022-07-31T06:09:03.392Z,100157.47
2022-07-31T06:10:03.616Z,100147.39
2022-07-31T06:11:08.851Z,100146.73
2022-07-31T06:12:13.138Z,100143.06
2022-07-31T06:13:16.885Z,100144.72
2022-07-31T06:14:20.682Z,100135.27
2022-07-31T06:15:26.262Z,100136.67
2022-07-31T06:16:30.075Z,100135.00
2022-07-31T06:17:43.715Z,100139.52
2022-07-31T06:18:39.389Z,100138.08
2022-07-31T06:19:42.820Z,100128.19
2022-07-31T06:20:47.684Z,100133.29
2022-07-31T06:21:50.838Z,100132.86
2022-07-31T06:22:56.817Z,100128.38
2022-07-31T06:24:02.899Z,100133.01
2022-07-31T06:25:12.771Z,100132.26
2022-07-31T06:26:21.607Z,100134.85
2022-07-31T06:27:33.930Z,100134.97
2022-07-31T06:28:49.311Z,100131.55
2022-07-31T06:29:50.818Z,100130.61
2022-07-31T06:30:58.393Z,100136.26
2022-07-31T06:32:02.056Z,100140.33
2022-07-31T06:33:08.100Z,100156.91
2022-07-31T06:34:18.325Z,100158.01
2022-07-31T06:35:20.143Z,100158.78
2022-07-31T06:37:45.450Z,100180.72
2022-07-31T06:38:48.964Z,100181.53
2022-07-31T06:39:59.401Z,100177.93
2022-07-31T06:41:42.246Z,100171.85
2022-07-31T06:43:06.963Z,100174.47
2022-07-31T06:44:12.382Z,100181.59
2022-07-31T06:45:50.912Z,100182.03
2022-07-31T06:46:48.990Z,100179.66
2022-07-31T06:48:06.234Z,100175.66
2022-07-31T06:49:18.075Z,100173.32
2022-07-31T06:50:22.461Z,100176.75
2022-07-31T06:51:32.108Z,100175.89
2022-07-31T06:52:36.550Z,100176.84
2022-07-31T06:53:40.376Z,100174.27
2022-07-31T06:54:43.621Z,100176.56
2022-07-31T06:55:48.878Z,100177.36
2022-07-31T06:58:06.461Z,100180.18
2022-07-31T06:59:12.778Z,100174.59
2022-07-31T07:00:20.524Z,100177.51
2022-07-31T07:01:24.612Z,100173.90
2022-07-31T07:02:36.672Z,100177.41
2022-07-31T07:03:42.412Z,100185.70
2022-07-31T07:04:57.433Z,100184.14
2022-07-31T07:05:54.018Z,100176.65
2022-07-31T07:06:56.673Z,100177.05
2022-07-31T07:08:03.466Z,100180.50
2022-07-31T07:09:11.388Z,100175.59
2022-07-31T07:10:17.154Z,100182.75
2022-07-31T07:11:40.803Z,100176.59
2022-07-31T07:12:47.764Z,100183.67
2022-07-31T07:13:51.286Z,100174.34
2022-07-31T07:14:55.503Z,100177.06
2022-07-31T07:15:59.826Z,100177.38
2022-07-31T07:17:05.323Z,100173.15
2022-07-31T07:18:09.335Z,100167.84
2022-07-31T07:19:15.075Z,100161.15
2022-07-31T07:20:21.434Z,100152.98
2022-07-31T07:21:26.953Z,100145.64
2022-07-31T07:22:32.279Z,100153.05
2022-07-31T07:23:37.873Z,100155.14
2022-07-31T07:25:01.691Z,100153.67
2022-07-31T07:26:07.122Z,100158.02
2022-07-31T07:27:30.542Z,100161.63
2022-07-31T07:28:35.358Z,100153.25
2022-07-31T07:29:38.357Z,100164.66
2022-07-31T07:30:42.516Z,100159.48
2022-07-31T07:31:50.342Z,100157.64
2022-07-31T07:32:52.865Z,100153.44
2022-07-31T07:33:56.223Z,100166.02
2022-07-31T07:35:03.208Z,100160.62
2022-07-31T07:36:25.560Z,100160.36
2022-07-31T07:37:32.375Z,100161.02
2022-07-31T07:38:36.795Z,100149.91
2022-07-31T07:39:40.431Z,100150.17
2022-07-31T07:40:44.944Z,100151.05
2022-07-31T07:41:50.109Z,100160.33
2022-07-31T07:42:54.290Z,100159.61
2022-07-31T07:43:58.269Z,100151.50
2022-07-31T07:45:07.954Z,100154.77
2022-07-31T07:46:15.616Z,100159.70
2022-07-31T07:47:20.522Z,100166.82
2022-07-31T07:48:26.381Z,100160.75
2022-07-31T07:49:32.662Z,100162.47
2022-07-31T07:52:09.710Z,100151.62
2022-07-31T07:53:16.283Z,100165.69
2022-07-31T07:54:38.377Z,100164.56
2022-07-31T07:55:43.828Z,100152.71
2022-07-31T07:57:04.999Z,100154.46
2022-07-31T07:58:27.057Z,100147.77
2022-07-31T07:59:35.220Z,100149.31
2022-07-31T08:00:46.579Z,100138.16
2022-07-31T08:01:55.144Z,100145.22
2022-07-31T08:03:02.908Z,100148.60
2022-07-31T08:04:08.354Z,100141.72
2022-07-31T08:05:12.838Z,100140.34
2022-07-31T08:06:15.883Z,100142.23
2022-07-31T08:07:41.872Z,100138.60
2022-07-31T08:08:43.300Z,100133.83
2022-07-31T08:09:48.555Z,100130.33
2022-07-31T08:11:04.843Z,100126.38
2022-07-31T08:12:12.816Z,100124.14
2022-07-31T08:13:18.272Z,100126.53
2022-07-31T08:14:42.691Z,100124.48
2022-07-31T08:16:06.999Z,100121.20
2022-07-31T08:17:15.145Z,100110.43
2022-07-31T08:18:19.642Z,100114.73
2022-07-31T08:19:22.939Z,100105.47
2022-07-31T08:20:26.725Z,100118.77
2022-07-31T08:21:32.163Z,100118.08
2022-07-31T08:22:37.715Z,100111.13
2022-07-31T08:23:42.534Z,100116.23
2022-07-31T08:24:46.627Z,100113.38
2022-07-31T08:25:51.347Z,100107.92
2022-07-31T08:27:13.556Z,100106.31
2022-07-31T08:28:23.946Z,100108.77
2022-07-31T08:29:27.275Z,100109.27
2022-07-31T08:30:33.594Z,100111.80
2022-07-31T08:31:37.392Z,100115.61
2022-07-31T08:32:57.875Z,100118.05
2022-07-31T08:34:04.227Z,100106.88
2022-07-31T08:35:12.631Z,100101.14
2022-07-31T08:36:16.446Z,100103.28
2022-07-31T08:37:57.613Z,100102.33
2022-07-31T08:38:29.791Z,100091.27
2022-07-31T08:39:37.240Z,100093.02
2022-07-31T08:40:43.801Z,100099.98
2022-07-31T08:41:56.622Z,100104.89
2022-07-31T08:43:01.151Z,100103.73
2022-07-31T08:44:09.864Z,100100.67
2022-07-31T08:45:15.050Z,100097.76
2022-07-31T08:46:22.494Z,100096.43
2022-07-31T08:47:28.778Z,100098.67
2022-07-31T08:48:39.779Z,100096.64
2022-07-31T08:49:49.621Z,100102.19
2022-07-31T08:50:55.483Z,100098.23
2022-07-31T08:52:22.743Z,100098.14
2022-07-31T08:53:30.140Z,100092.56
2022-07-31T08:54:37.201Z,100097.06
2022-07-31T08:55:56.047Z,100087.13
2022-07-31T08:56:50.648Z,100092.06
2022-07-31T08:57:56.303Z,100084.53
2022-07-31T08:59:00.497Z,100075.22
2022-07-31T09:00:10.447Z,100088.48
2022-07-31T09:01:19.729Z,100077.09
2022-07-31T09:02:23.206Z,100078.92
2022-07-31T09:03:29.257Z,100087.58
2022-07-31T09:04:34.754Z,100078.15
2022-07-31T09:05:42.402Z,100079.26
2022-07-31T09:06:46.273Z,100077.11
2022-07-31T09:07:51.344Z,100068.86
2022-07-31T09:08:58.374Z,100074.20
2022-07-31T09:10:03.145Z,100073.56
2022-07-31T09:11:13.493Z,100070.80
2022-07-31T09:12:35.484Z,100067.50
2022-07-31T09:13:42.036Z,100070.60
2022-07-31T09:14:52.002Z,100071.98
2022-07-31T09:16:00.351Z,100070.11
2022-07-31T09:17:08.294Z,100065.73
2022-07-31T09:18:23.797Z,100068.25
2022-07-31T09:19:54.179Z,100057.81
2022-07-31T09:21:02.366Z,100064.57
2022-07-31T09:22:10.368Z,100060.69
2022-07-31T09:23:14.375Z,100053.48
2022-07-31T09:24:39.616Z,100040.87
2022-07-31T09:25:39.793Z,100055.35
2022-07-31T09:26:43.918Z,100050.51
2022-07-31T09:27:49.391Z,100050.37
2022-07-31T09:29:00.583Z,100050.87
2022-07-31T09:30:08.763Z,100045.78
2022-07-31T09:31:34.921Z,100053.35
2022-07-31T09:32:39.944Z,100044.78
2022-07-31T09:33:48.925Z,100039.71
2022-07-31T09:35:19.127Z,100046.49
2022-07-31T09:36:26.994Z,100047.80
2022-07-31T09:37:33.594Z,100046.41
2022-07-31T09:39:58.223Z,100045.96
2022-07-31T09:41:55.639Z,100041.46
2022-07-31T09:42:30.752Z,100037.84
2022-07-31T09:43:51.763Z,100037.84
2022-07-31T09:44:44.135Z,100041.03
2022-07-31T09:46:01.229Z,100038.55
2022-07-31T09:47:06.920Z,100041.27
2022-07-31T09:48:24.932Z,100030.98
2022-07-31T09:49:25.991Z,100034.72
2022-07-31T09:50:31.741Z,100030.56
2022-07-31T09:51:49.192Z,100030.26
2022-07-31T09:53:03.045Z,100030.81
2022-07-31T09:54:14.255Z,100029.73
2022-07-31T09:55:19.669Z,100026.97
2022-07-31T09:56:34.182Z,100028.59
2022-07-31T09:57:49.404Z,100023.89
2022-07-31T09:58:51.087Z,100028.37
2022-07-31T09:59:57.926Z,100015.07
2022-07-31T10:01:09.078Z,100016.19
2022-07-31T10:02:31.637Z,100012.03
2022-07-31T10:03:41.570Z,100025.38
2022-07-31T10:04:47.391Z,100025.81
2022-07-31T10:05:53.638Z,100019.40
2022-07-31T10:06:57.842Z,100018.95
2022-07-31T10:08:03.099Z,100019.72
2022-07-31T10:09:28.437Z,100015.12
2022-07-31T10:10:47.802Z,100017.02
2022-07-31T10:12:10.722Z,100007.61
2022-07-31T10:13:20.793Z,100018.95
2022-07-31T10:14:31.357Z,100017.02
2022-07-31T10:15:37.995Z,100017.28
2022-07-31T10:17:05.468Z,100017.02
2022-07-31T10:18:10.909Z,100015.93
2022-07-31T10:19:20.405Z,100003.20
2022-07-31T10:20:28.206Z,100009.03
2022-07-31T10:21:41.903Z,100010.84
2022-07-31T10:22:49.912Z,100007.55
2022-07-31T10:23:59.188Z,100005.59
2022-07-31T10:25:07.604Z,100000.64
2022-07-31T10:26:13.881Z,99991.09
2022-07-31T10:27:19.775Z,100001.00
2022-07-31T10:28:33.274Z,100002.53
2022-07-31T10:29:40.895Z,100004.30
2022-07-31T10:30:47.196Z,100000.66
2022-07-31T10:31:52.715Z,99991.52
2022-07-31T10:33:01.594Z,99998.72
2022-07-31T10:34:06.420Z,99997.94
2022-07-31T10:35:30.260Z,99996.58
2022-07-31T10:36:42.633Z,99999.33
2022-07-31T10:38:15.264Z,99996.03
2022-07-31T10:39:50.166Z,99991.03
2022-07-31T10:41:22.016Z,99980.84
2022-07-31T10:42:35.634Z,99978.63
2022-07-31T10:43:58.749Z,99983.84
2022-07-31T10:45:14.268Z,99989.68
2022-07-31T10:46:32.641Z,99982.95
2022-07-31T10:47:55.434Z,99981.31
2022-07-31T10:49:08.584Z,99981.38
2022-07-31T10:50:32.345Z,99986.50
2022-07-31T10:51:52.933Z,99980.70
2022-07-31T10:53:17.749Z,99979.33
2022-07-31T10:54:45.472Z,99982.91
2022-07-31T10:56:11.204Z,99979.76
2022-07-31T10:59:01.641Z,99977.03
2022-07-31T11:00:17.811Z,99975.95
2022-07-31T11:01:28.573Z,99978.52
2022-07-31T11:02:42.433Z,99967.59
2022-07-31T11:04:02.878Z,99958.00
2022-07-31T11:05:13.955Z,99960.46
2022-07-31T11:08:03.763Z,99962.80
2022-07-31T11:09:13.409Z,99959.19
2022-07-31T11:10:26.464Z,99956.49
2022-07-31T11:11:43.719Z,99952.94
2022-07-31T11:13:06.480Z,99952.47
2022-07-31T11:14:40.361Z,99956.44
2022-07-31T11:15:52.714Z,99946.69
2022-07-31T11:17:15.730Z,99948.86
2022-07-31T11:18:33.974Z,99948.54
2022-07-31T11:19:44.893Z,99946.34
2022-07-31T11:21:35.906Z,99946.61
2022-07-31T11:22:31.355Z,99939.42
2022-07-31T11:23:33.578Z,99945.98
2022-07-31T11:24:38.349Z,99943.86
2022-07-31T11:25:45.567Z,99944.73
2022-07-31T11:26:53.992Z,99941.59
2022-07-31T11:28:00.670Z,99935.61
2022-07-31T11:30:01.030Z,99931.39
2022-07-31T11:30:14.400Z,99932.09
2022-07-31T11:31:19.121Z,99934.95
2022-07-31T11:32:25.840Z,99932.30
2022-07-31T11:34:47.148Z,99930.66
2022-07-31T11:35:49.747Z,99930.00
2022-07-31T11:36:55.023Z,99928.37
2022-07-31T11:38:00.855Z,99923.66
2022-07-31T11:39:06.213Z,99928.73
2022-07-31T11:40:11.384Z,99922.91
2022-07-31T11:41:22.843Z,99915.40
2022-07-31T11:42:36.144Z,99917.19
2022-07-31T11:43:48.050Z,99920.95
2022-07-31T11:44:53.463Z,99918.14
2022-07-31T11:45:58.589Z,99919.89
2022-07-31T11:47:02.491Z,99921.16
2022-07-31T11:48:11.385Z,99923.44
2022-07-31T11:49:20.645Z,99915.69
2022-07-31T11:50:32.095Z,99917.97
2022-07-31T11:51:35.423Z,99917.62
2022-07-31T11:52:47.183Z,99925.41
2022-07-31T11:53:57.414Z,99919.13
2022-07-31T11:55:26.417Z,99922.42
2022-07-31T11:56:32.271Z,99915.34
2022-07-31T11:57:51.587Z,99908.78
2022-07-31T11:58:44.222Z,99915.83
2022-07-31T11:59:49.469Z,99912.82
2022-07-31T12:01:00.529Z,99906.41
2022-07-31T12:02:07.786Z,99909.92
2022-07-31T12:03:14.299Z,99906.02
2022-07-31T12:04:20.563Z,99904.15
2022-07-31T12:05:36.145Z,99905.06
2022-07-31T12:06:36.704Z,99909.23
2022-07-31T12:07:43.003Z,99893.95
2022-07-31T12:08:52.418Z,99907.95
2022-07-31T12:10:00.621Z,99900.61
2022-07-31T12:11:03.435Z,99900.65
2022-07-31T12:12:09.579Z,99898.73
2022-07-31T12:13:16.359Z,99897.03
2022-07-31T12:14:33.660Z,99907.19
2022-07-31T12:15:37.544Z,99904.91
2022-07-31T12:16:44.349Z,99909.25
2022-07-31T12:17:48.145Z,99903.69
2022-07-31T12:19:00.424Z,99898.00
2022-07-31T12:20:09.437Z,99905.48
2022-07-31T12:21:13.665Z,99899.27
2022-07-31T12:22:21.052Z,99904.55
2022-07-31T12:23:40.667Z,99904.11
2022-07-31T12:24:31.602Z,99898.87
2022-07-31T12:25:45.765Z,99892.52
2022-07-31T12:26:54.494Z,99901.13
2022-07-31T12:27:58.191Z,99894.69
2022-07-31T12:29:05.150Z,99894.40
2022-07-31T12:30:16.831Z,99900.80
2022-07-31T12:31:20.507Z,99893.69
2022-07-31T12:32:26.300Z,99896.18
2022-07-31T12:33:33.699Z,99891.27
2022-07-31T12:34:41.466Z,99880.70
2022-07-31T12:35:55.341Z,99884.70
2022-07-31T12:36:59.899Z,99891.87
2022-07-31T12:38:18.595Z,99881.98
2022-07-31T12:39:12.132Z,99884.08
2022-07-31T12:41:44.786Z,99890.83
2022-07-31T12:42:48.516Z,99893.17
2022-07-31T12:43:56.233Z,99885.28
2022-07-31T12:45:18.307Z,99896.03
2022-07-31T12:46:11.459Z,99893.54
2022-07-31T12:47:29.547Z,99889.60
2022-07-31T12:48:40.103Z,99889.09
2022-07-31T12:49:41.883Z,99888.89
2022-07-31T12:50:46.099Z,99879.27
2022-07-31T12:51:50.517Z,99893.13
2022-07-31T12:52:55.193Z,99887.63
2022-07-31T12:53:58.866Z,99888.50
2022-07-31T12:55:03.119Z,99891.84
2022-07-31T12:56:12.956Z,99882.18
2022-07-31T12:57:18.456Z,99882.62
2022-07-31T12:58:22.116Z,99888.61
2022-07-31T12:59:25.480Z,99895.34
2022-07-31T13:00:29.650Z,99884.36
2022-07-31T13:01:37.842Z,99880.44
2022-07-31T13:02:43.338Z,99886.20
2022-07-31T13:03:49.217Z,99879.55
2022-07-31T13:04:56.372Z,99879.42
2022-07-31T13:06:00.437Z,99875.69
2022-07-31T13:07:03.548Z,99875.44
2022-07-31T13:08:09.765Z,99881.19
2022-07-31T13:09:14.323Z,99874.91
2022-07-31T13:10:24.715Z,99875.67
2022-07-31T13:11:45.914Z,99871.63
2022-07-31T13:12:36.467Z,99871.66
2022-07-31T13:13:39.406Z,99871.69
2022-07-31T13:14:43.095Z,99867.48
2022-07-31T13:15:49.966Z,99867.84
2022-07-31T13:16:56.618Z,99870.28
2022-07-31T13:18:05.491Z,99865.45
2022-07-31T13:19:10.715Z,99869.58
2022-07-31T13:20:16.733Z,99869.77
2022-07-31T13:21:23.030Z,99866.91
2022-07-31T13:22:28.987Z,99865.89
2022-07-31T13:23:32.149Z,99866.44
2022-07-31T13:24:36.179Z,99862.60
2022-07-31T13:25:40.836Z,99865.61
2022-07-31T13:26:46.237Z,99870.34
2022-07-31T13:27:49.670Z,99858.70
2022-07-31T13:28:54.047Z,99863.66
2022-07-31T13:29:59.464Z,99861.38
2022-07-31T13:31:04.780Z,99866.66
2022-07-31T13:32:12.495Z,99861.45
2022-07-31T13:33:16.706Z,99855.76
2022-07-31T13:34:20.344Z,99865.73
2022-07-31T13:35:28.522Z,99856.43
2022-07-31T13:36:39.364Z,99855.59
2022-07-31T13:37:42.590Z,99855.41
2022-07-31T13:38:50.038Z,99848.50
2022-07-31T13:39:53.917Z,99854.00
2022-07-31T13:41:16.282Z,99849.41
2022-07-31T13:42:19.829Z,99849.95
2022-07-31T13:43:24.693Z,99853.54
2022-07-31T13:44:29.611Z,99846.63
2022-07-31T13:45:33.373Z,99847.41